Time;durP1;ratioP1;P1;durP2;ratioP2;P2;SDS_P1;SDS_P2;PMS_P1;PMS_P2;Temp;Humidity;BMP_temperature;BMP_pressure;BME280_temperature;BME280_humidity;BME280_pressure;Samples;Min_cycle;Max_cycle;Signal;HPM_P1;HPM_P2
2022/07/22 00:01:04;;;;;;;3.62;2.37;;;23.90;51.00;;;;;;2588330;53;20973;-73
2022/07/22 00:03:30;;;;;;;3.72;2.08;;;23.90;51.20;;;;;;2340073;53;21422;-74
2022/07/22 00:05:57;;;;;;;3.25;2.17;;;23.90;51.30;;;;;;2344786;53;21024;-73
2022/07/22 00:08:23;;;;;;;4.75;2.30;;;23.80;51.20;;;;;;2320711;54;20961;-73
2022/07/22 00:10:50;;;;;;;4.85;2.05;;;23.80;51.20;;;;;;2527839;53;21546;-73
2022/07/22 00:13:16;;;;;;;3.53;2.10;;;23.80;51.30;;;;;;2337620;54;21003;-73
2022/07/22 00:15:42;;;;;;;3.08;1.85;;;23.80;51.30;;;;;;2346906;54;20974;-72
2022/07/22 00:18:09;;;;;;;3.60;1.90;;;23.80;51.30;;;;;;2336679;53;21003;-73
2022/07/22 00:20:35;;;;;;;4.45;1.90;;;23.80;51.40;;;;;;2336717;53;20955;-75
2022/07/22 00:23:02;;;;;;;4.32;1.90;;;23.70;51.30;;;;;;2357602;53;20952;-73
2022/07/22 00:25:30;;;;;;;4.82;2.10;;;23.70;51.50;;;;;;2343568;53;20992;-73
2022/07/22 00:27:56;;;;;;;3.35;1.95;;;23.70;51.50;;;;;;2326999;54;20966;-73
2022/07/22 00:30:25;;;;;;;3.03;1.92;;;23.60;51.50;;;;;;2398080;53;21035;-75
2022/07/22 00:32:54;;;;;;;3.30;2.20;;;23.60;51.50;;;;;;2344206;54;20952;-73
2022/07/22 00:35:21;;;;;;;4.07;2.33;;;23.60;51.60;;;;;;2338177;53;21636;-75
2022/07/22 00:37:50;;;;;;;4.25;2.35;;;23.60;51.60;;;;;;2332938;54;20986;-73
2022/07/22 00:40:16;;;;;;;3.08;1.98;;;23.50;51.70;;;;;;2473656;53;21547;-73
2022/07/22 00:42:45;;;;;;;3.00;1.98;;;23.50;51.60;;;;;;2338340;54;20974;-74
2022/07/22 00:45:12;;;;;;;2.97;1.90;;;23.50;51.70;;;;;;2587114;52;21801;-73
2022/07/22 00:47:39;;;;;;;2.92;1.65;;;23.40;51.60;;;;;;2384448;52;20930;-73
2022/07/22 00:50:06;;;;;;;3.95;2.28;;;23.40;51.60;;;;;;2330311;54;21004;-73
2022/07/22 00:52:33;;;;;;;4.25;2.00;;;23.40;51.70;;;;;;2339936;54;21825;-73
2022/07/22 00:55:00;;;;;;;3.25;2.00;;;23.40;51.70;;;;;;2366607;53;21057;-74
2022/07/22 00:57:26;;;;;;;3.72;1.87;;;23.40;51.80;;;;;;2325775;54;21051;-73
2022/07/22 00:59:53;;;;;;;3.60;1.90;;;23.30;51.80;;;;;;2575440;53;20952;-73
2022/07/22 01:02:19;;;;;;;3.50;2.12;;;23.20;51.70;;;;;;2338096;53;21964;-73
2022/07/22 01:04:46;;;;;;;3.30;2.15;;;23.20;51.80;;;;;;2591645;53;21025;-73
2022/07/22 01:07:13;;;;;;;4.20;2.12;;;23.10;51.80;;;;;;2341867;54;20992;-73
2022/07/22 01:09:43;;;;;;;3.30;2.20;;;23.10;51.90;;;;;;2477330;53;21041;-73
2022/07/22 01:12:10;;;;;;;4.30;2.17;;;23.10;52.10;;;;;;2313088;54;21571;-73
2022/07/22 01:14:37;;;;;;;3.30;2.12;;;23.10;52.10;;;;;;2542674;53;20972;-73
2022/07/22 01:17:04;;;;;;;2.87;2.03;;;23.00;52.10;;;;;;2337435;54;20940;-73
2022/07/22 01:19:30;;;;;;;3.67;2.22;;;23.00;52.20;;;;;;2327322;54;20955;-74
2022/07/22 01:21:57;;;;;;;3.28;2.22;;;23.00;52.20;;;;;;2304080;54;21557;-74
2022/07/22 01:24:26;;;;;;;4.53;2.42;;;22.90;52.20;;;;;;2375597;53;21476;-74
2022/07/22 01:26:56;;;;;;;4.82;2.75;;;22.90;52.40;;;;;;2326794;54;20954;-73
2022/07/22 01:29:22;;;;;;;3.60;2.33;;;22.90;52.50;;;;;;2542569;53;20998;-73
2022/07/22 01:31:49;;;;;;;3.60;2.00;;;22.90;52.40;;;;;;2290931;54;20996;-73
2022/07/22 01:34:15;;;;;;;3.37;2.10;;;22.80;52.40;;;;;;2310764;54;20983;-73
2022/07/22 01:36:42;;;;;;;4.40;2.00;;;22.80;52.40;;;;;;2558094;53;20927;-73
2022/07/22 01:39:08;;;;;;;3.50;2.30;;;22.80;52.50;;;;;;2316551;55;20971;-73
2022/07/22 01:41:36;;;;;;;3.65;2.30;;;22.80;52.60;;;;;;2303832;54;21036;-73
2022/07/22 01:44:02;;;;;;;3.58;2.55;;;22.70;53.20;;;;;;2333659;54;20995;-73
2022/07/22 01:46:29;;;;;;;3.55;2.30;;;22.70;52.60;;;;;;2338407;54;20959;-73
2022/07/22 01:48:59;;;;;;;4.65;2.62;;;22.70;52.60;;;;;;2528847;53;21651;-74
2022/07/22 01:51:27;;;;;;;4.30;2.47;;;22.70;52.90;;;;;;2322640;54;21081;-72
2022/07/22 01:53:54;;;;;;;4.87;2.22;;;22.70;53.00;;;;;;2324598;54;20957;-76
2022/07/22 01:56:21;;;;;;;3.67;2.37;;;22.70;53.00;;;;;;2554996;53;20972;-74
2022/07/22 01:58:49;;;;;;;3.37;2.30;;;22.60;52.90;;;;;;2333363;53;21386;-73
2022/07/22 02:01:16;;;;;;;3.80;1.98;;;22.60;52.90;;;;;;2339043;54;20949;-73
2022/07/22 02:03:42;;;;;;;4.15;2.40;;;22.60;53.00;;;;;;2469601;53;20989;-72
2022/07/22 02:06:10;;;;;;;3.25;2.12;;;22.60;53.00;;;;;;2322555;54;20972;-73
2022/07/22 02:08:38;;;;;;;3.92;2.30;;;22.50;52.90;;;;;;2550475;53;21068;-73
2022/07/22 02:11:05;;;;;;;4.72;2.37;;;22.50;53.00;;;;;;2333657;54;20935;-74
2022/07/22 02:13:31;;;;;;;3.65;2.47;;;22.50;53.00;;;;;;2329602;53;21827;-75
2022/07/22 02:15:59;;;;;;;3.58;2.40;;;22.50;53.10;;;;;;2322206;54;21069;-73
2022/07/22 02:18:25;;;;;;;4.03;2.40;;;22.40;53.00;;;;;;2337448;54;21063;-74
2022/07/22 02:20:53;;;;;;;4.15;2.37;;;22.40;53.00;;;;;;2320076;54;21526;-74
2022/07/22 02:23:22;;;;;;;5.43;2.60;;;22.40;53.00;;;;;;2340133;54;20981;-73
2022/07/22 02:25:49;;;;;;;3.87;2.45;;;22.40;53.30;;;;;;2320444;54;21504;-73
2022/07/22 02:28:15;;;;;;;3.72;2.47;;;22.40;53.20;;;;;;2555653;53;21490;-72
2022/07/22 02:30:42;;;;;;;3.78;2.78;;;22.30;53.20;;;;;;2319324;54;20945;-73
2022/07/22 02:33:08;;;;;;;5.95;3.00;;;22.30;53.40;;;;;;2556128;53;20991;-73
2022/07/22 02:35:35;;;;;;;4.28;2.72;;;22.30;53.60;;;;;;2324245;54;21012;-74
2022/07/22 02:38:01;;;;;;;4.37;2.78;;;22.30;53.60;;;;;;2459747;53;20920;-73
2022/07/22 02:40:28;;;;;;;4.40;2.40;;;22.30;53.60;;;;;;2314259;54;21163;-73
2022/07/22 02:42:55;;;;;;;3.80;1.80;;;22.20;53.50;;;;;;2587894;53;20937;-74
2022/07/22 02:45:21;;;;;;;3.03;1.95;;;22.20;53.40;;;;;;2325133;54;20977;-74
2022/07/22 02:47:49;;;;;;;3.47;2.20;;;22.20;53.50;;;;;;2576655;53;20971;-73
2022/07/22 02:50:16;;;;;;;3.12;2.10;;;22.20;53.50;;;;;;2326211;54;21048;-73
2022/07/22 02:52:42;;;;;;;4.70;2.03;;;22.20;53.50;;;;;;2509803;53;21449;-73
2022/07/22 02:55:09;;;;;;;4.12;2.58;;;22.10;53.40;;;;;;2319166;54;21072;-73
2022/07/22 02:57:39;;;;;;;4.05;2.50;;;22.10;53.50;;;;;;2569506;53;20968;-74
2022/07/22 03:00:08;;;;;;;4.07;2.12;;;22.00;53.60;;;;;;2321191;54;21017;-73
2022/07/22 03:02:35;;;;;;;4.43;2.10;;;22.00;53.60;;;;;;2583809;53;21028;-74
2022/07/22 03:05:03;;;;;;;3.65;2.25;;;22.00;53.50;;;;;;2325419;54;20990;-73
2022/07/22 03:07:29;;;;;;;3.90;2.30;;;22.00;53.60;;;;;;2459479;53;21016;-73
2022/07/22 03:09:56;;;;;;;3.58;2.62;;;22.00;53.70;;;;;;2315003;54;20941;-75
2022/07/22 03:12:30;;;;;;;4.90;2.53;;;22.00;53.80;;;;;;2483689;53;20964;-73
2022/07/22 03:14:57;;;;;;;3.30;2.15;;;22.00;53.90;;;;;;2339916;54;20940;-73
2022/07/22 03:17:23;;;;;;;4.10;2.40;;;21.90;53.70;;;;;;2345603;53;21024;-74
2022/07/22 03:19:50;;;;;;;3.92;2.55;;;21.90;53.70;;;;;;2321996;54;21831;-73
2022/07/22 03:22:17;;;;;;;5.18;2.40;;;21.90;53.80;;;;;;2562195;53;21057;-73
2022/07/22 03:24:45;;;;;;;4.50;2.37;;;21.80;53.70;;;;;;2326434;54;21676;-73
2022/07/22 03:27:11;;;;;;;3.87;2.33;;;21.80;53.70;;;;;;2572144;53;20992;-73
2022/07/22 03:29:38;;;;;;;3.85;2.20;;;21.80;53.80;;;;;;2420060;53;20932;-73
2022/07/22 03:32:05;;;;;;;3.58;2.17;;;21.80;54.10;;;;;;2363529;53;21794;-73
2022/07/22 03:34:32;;;;;;;3.50;2.22;;;21.70;54.00;;;;;;2587592;53;21861;-75
2022/07/22 03:36:58;;;;;;;3.47;2.30;;;21.70;54.00;;;;;;2566803;53;20929;-73
2022/07/22 03:39:28;;;;;;;5.00;2.70;;;21.70;54.10;;;;;;2318236;54;21840;-73
2022/07/22 03:41:55;;;;;;;5.55;2.90;;;21.60;54.00;;;;;;2366574;53;20937;-73
2022/07/22 03:44:22;;;;;;;4.35;2.70;;;21.60;54.20;;;;;;2323918;54;20948;-73
2022/07/22 03:46:51;;;;;;;3.72;2.55;;;21.60;54.40;;;;;;2586258;53;21012;-72
2022/07/22 03:49:18;;;;;;;5.00;2.45;;;21.60;54.60;;;;;;2340742;54;21003;-73
2022/07/22 03:51:44;;;;;;;3.78;2.60;;;21.60;54.40;;;;;;2325800;54;20936;-74
2022/07/22 03:54:11;;;;;;;5.22;2.60;;;21.50;54.50;;;;;;2319177;54;20941;-74
2022/07/22 03:56:37;;;;;;;3.80;2.50;;;21.50;54.50;;;;;;2421303;53;21052;-73
2022/07/22 03:59:04;;;;;;;6.43;2.70;;;21.50;54.50;;;;;;2320709;54;20921;-73
2022/07/22 04:01:30;;;;;;;4.35;2.30;;;21.50;54.50;;;;;;2384012;53;20994;-74
2022/07/22 04:03:57;;;;;;;4.00;2.37;;;21.50;54.50;;;;;;2502978;53;20973;-74
2022/07/22 04:06:27;;;;;;;3.53;2.00;;;21.50;54.50;;;;;;2519499;53;20960;-73
2022/07/22 04:08:57;;;;;;;3.75;2.37;;;21.50;54.50;;;;;;2319711;54;21001;-72
2022/07/22 04:11:24;;;;;;;3.40;2.03;;;21.50;54.50;;;;;;2554421;53;20981;-74
2022/07/22 04:13:51;;;;;;;3.30;2.10;;;21.50;54.50;;;;;;2323312;54;20952;-73
2022/07/22 04:16:18;;;;;;;3.85;2.53;;;21.40;54.40;;;;;;2566450;53;21337;-73
2022/07/22 04:18:44;;;;;;;3.72;2.30;;;21.40;54.40;;;;;;2324421;54;21036;-73
2022/07/22 04:21:10;;;;;;;3.62;2.12;;;21.40;54.50;;;;;;2343939;53;21661;-73
2022/07/22 04:23:39;;;;;;;3.83;2.28;;;21.40;54.40;;;;;;2319611;54;21005;-74
2022/07/22 04:26:07;;;;;;;3.80;2.50;;;21.40;54.50;;;;;;2566385;53;20977;-73
2022/07/22 04:28:35;;;;;;;3.85;2.05;;;21.40;54.50;;;;;;2323717;54;20980;-73
2022/07/22 04:31:05;;;;;;;3.72;2.35;;;21.30;54.50;;;;;;2365483;54;21721;-73
2022/07/22 04:33:33;;;;;;;4.67;2.53;;;21.30;54.60;;;;;;2316576;53;20997;-74
2022/07/22 04:35:59;;;;;;;4.68;2.40;;;21.30;54.50;;;;;;2510177;53;21602;-74
2022/07/22 04:38:26;;;;;;;3.95;2.35;;;21.30;54.60;;;;;;2314013;53;20999;-73
2022/07/22 04:40:53;;;;;;;5.12;2.80;;;21.30;54.60;;;;;;2328611;54;21848;-73
2022/07/22 04:43:20;;;;;;;6.85;2.92;;;21.30;54.80;;;;;;2316903;54;21074;-73
2022/07/22 04:45:46;;;;;;;4.15;2.85;;;21.20;54.70;;;;;;2334642;54;21024;-74
2022/07/22 04:48:13;;;;;;;4.40;2.60;;;21.20;54.80;;;;;;2311285;54;20956;-74
2022/07/22 04:50:41;;;;;;;3.95;2.62;;;21.20;54.90;;;;;;2335325;54;20936;-73
2022/07/22 04:53:07;;;;;;;5.45;2.70;;;21.20;54.90;;;;;;2299894;55;20953;-74
2022/07/22 04:55:33;;;;;;;3.70;2.22;;;21.20;55.00;;;;;;2309202;54;20983;-75
2022/07/22 04:58:00;;;;;;;4.20;2.75;;;21.20;55.00;;;;;;2555883;53;20956;-73
2022/07/22 05:00:27;;;;;;;4.90;3.10;;;21.20;55.10;;;;;;2323426;54;21027;-72
2022/07/22 05:02:54;;;;;;;4.72;3.53;;;21.20;55.10;;;;;;2289080;54;21610;-75
2022/07/22 05:05:20;;;;;;;5.70;3.53;;;21.20;55.20;;;;;;2582011;53;20926;-73
2022/07/22 05:07:47;;;;;;;4.72;3.62;;;21.20;55.30;;;;;;2308832;54;21005;-72
2022/07/22 05:10:14;;;;;;;4.37;3.33;;;21.20;55.50;;;;;;2315250;53;21075;-75
2022/07/22 05:12:46;;;;;;;4.35;3.15;;;21.20;55.50;;;;;;2306349;53;21036;-74
2022/07/22 05:15:14;;;;;;;5.07;3.37;;;21.20;55.50;;;;;;2310120;54;20998;-72
2022/07/22 05:17:44;;;;;;;3.90;2.75;;;21.20;55.60;;;;;;2307669;55;21154;-73
2022/07/22 05:20:12;;;;;;;4.57;3.45;;;21.30;55.80;;;;;;2326204;53;20916;-73
2022/07/22 05:22:38;;;;;;;6.18;3.95;;;21.20;55.80;;;;;;2336227;54;20960;-74
2022/07/22 05:25:05;;;;;;;5.35;2.95;;;21.30;55.90;;;;;;2325691;54;20928;-73
2022/07/22 05:27:32;;;;;;;5.47;3.53;;;21.20;55.80;;;;;;2338118;54;21444;-74
2022/07/22 05:30:01;;;;;;;4.87;3.05;;;21.30;56.60;;;;;;2341539;53;21765;-72
2022/07/22 05:32:27;;;;;;;5.07;3.35;;;21.30;56.10;;;;;;2341180;53;21413;-75
2022/07/22 05:34:55;;;;;;;4.85;3.20;;;21.40;56.10;;;;;;2416925;53;21447;-73
2022/07/22 05:37:24;;;;;;;4.90;2.78;;;21.30;56.10;;;;;;2337298;53;21533;-73
2022/07/22 05:39:51;;;;;;;4.10;3.00;;;21.40;56.20;;;;;;2543327;53;21046;-74
2022/07/22 05:42:17;;;;;;;4.45;3.03;;;21.40;56.80;;;;;;2398887;53;21035;-73
2022/07/22 05:44:44;;;;;;;4.05;2.87;;;21.40;56.20;;;;;;2335598;54;20965;-74
2022/07/22 05:47:12;;;;;;;6.28;2.97;;;21.50;56.40;;;;;;2345510;53;20959;-74
2022/07/22 05:49:38;;;;;;;4.07;3.17;;;21.40;56.30;;;;;;2461591;53;21061;-73
2022/07/22 05:52:08;;;;;;;3.40;2.42;;;21.50;56.40;;;;;;2335255;54;21039;-74
2022/07/22 05:54:35;;;;;;;5.07;3.30;;;21.50;56.40;;;;;;2329408;54;21105;-74
2022/07/22 05:57:01;;;;;;;5.15;3.47;;;21.50;57.10;;;;;;2346828;54;20966;-75
2022/07/22 05:59:28;;;;;;;4.50;3.12;;;21.60;57.20;;;;;;2346773;53;20933;-74
2022/07/22 06:01:54;;;;;;;6.12;3.33;;;21.60;56.60;;;;;;2520034;53;20987;-73
2022/07/22 06:04:21;;;;;;;7.97;4.18;;;21.60;56.70;;;;;;2341038;53;20930;-73
2022/07/22 06:06:47;;;;;;;5.80;3.72;;;21.70;57.00;;;;;;2330026;53;20984;-73
2022/07/22 06:09:14;;;;;;;4.50;2.92;;;21.70;57.00;;;;;;2335421;54;20911;-73
2022/07/22 06:11:40;;;;;;;5.12;3.53;;;21.80;57.00;;;;;;2327070;54;21004;-72
2022/07/22 06:14:07;;;;;;;5.07;3.35;;;21.80;57.00;;;;;;2337968;54;20992;-74
2022/07/22 06:16:34;;;;;;;5.53;3.42;;;21.90;57.10;;;;;;2470013;53;21213;-73
2022/07/22 06:19:01;;;;;;;5.22;3.60;;;21.90;57.10;;;;;;2340880;53;21499;-72
2022/07/22 06:21:27;;;;;;;6.72;3.78;;;21.90;57.10;;;;;;2345935;54;20995;-73
2022/07/22 06:23:54;;;;;;;4.95;3.62;;;22.00;57.20;;;;;;2329637;54;20971;-73
2022/07/22 06:26:20;;;;;;;4.62;3.03;;;22.00;57.20;;;;;;2325342;53;20940;-74
2022/07/22 06:28:47;;;;;;;4.32;3.03;;;22.10;57.20;;;;;;2321772;54;21004;-73
2022/07/22 06:31:14;;;;;;;4.95;3.00;;;22.10;57.20;;;;;;2341564;53;20967;-72
2022/07/22 06:33:40;;;;;;;4.80;3.28;;;22.20;57.30;;;;;;2333027;54;21788;-75
2022/07/22 06:36:09;;;;;;;6.60;3.97;;;22.20;57.30;;;;;;2332234;54;20993;-72
2022/07/22 06:38:36;;;;;;;7.22;3.87;;;22.30;57.50;;;;;;2341843;54;21406;-73
2022/07/22 06:41:06;;;;;;;5.78;3.80;;;22.30;57.50;;;;;;2435213;53;20949;-75
2022/07/22 06:43:33;;;;;;;7.95;4.45;;;22.40;57.50;;;;;;2342498;54;21041;-73
2022/07/22 06:46:00;;;;;;;5.37;3.62;;;22.40;57.60;;;;;;2345260;54;21002;-73
2022/07/22 06:48:30;;;;;;;5.68;4.15;;;22.50;57.70;;;;;;2338971;54;20952;-73
2022/07/22 06:50:56;;;;;;;5.20;3.97;;;22.50;57.80;;;;;;2340184;54;21028;-74
2022/07/22 06:53:23;;;;;;;6.00;4.57;;;22.60;57.70;;;;;;2340930;54;21067;-73
2022/07/22 06:55:49;;;;;;;5.93;4.10;;;22.70;57.80;;;;;;2432183;53;21964;-73
2022/07/22 06:58:15;;;;;;;5.78;3.83;;;22.70;57.80;;;;;;2335661;53;21027;-74
2022/07/22 07:00:42;;;;;;;5.50;4.15;;;22.80;57.80;;;;;;2335954;54;21008;-73
2022/07/22 07:03:08;;;;;;;5.70;3.75;;;22.80;57.80;;;;;;2341757;54;20936;-73
2022/07/22 07:05:49;;;;;;;4.97;3.70;;;22.90;57.80;;;;;;2342981;54;21544;-73
2022/07/22 07:08:16;;;;;;;5.55;3.55;;;23.00;57.80;;;;;;2348971;54;20925;-73
2022/07/22 07:10:43;;;;;;;6.18;3.87;;;23.00;57.70;;;;;;2423425;54;20979;-73
2022/07/22 07:13:11;;;;;;;4.80;3.50;;;23.10;57.60;;;;;;2328953;54;21876;-73
2022/07/22 07:15:38;;;;;;;5.00;3.72;;;23.10;57.50;;;;;;2281601;54;21041;-74
2022/07/22 07:18:05;;;;;;;5.05;3.50;;;23.20;57.50;;;;;;2295027;54;21015;-73
2022/07/22 07:20:32;;;;;;;5.15;4.00;;;23.30;57.60;;;;;;2330147;54;21008;-73
2022/07/22 07:23:02;;;;;;;8.95;4.72;;;23.40;57.70;;;;;;2353591;53;20936;-73
2022/07/22 07:25:28;;;;;;;6.00;4.15;;;23.40;57.70;;;;;;2317837;54;20992;-73
2022/07/22 07:27:55;;;;;;;5.60;3.87;;;23.50;57.70;;;;;;2320301;54;21495;-74
2022/07/22 07:30:22;;;;;;;5.62;4.47;;;23.50;57.60;;;;;;2334229;54;21015;-74
2022/07/22 07:32:48;;;;;;;6.12;4.93;;;23.60;57.60;;;;;;2323991;54;21109;-73
2022/07/22 07:35:14;;;;;;;6.57;4.50;;;23.70;57.70;;;;;;2349997;53;21004;-73
2022/07/22 07:37:42;;;;;;;6.10;4.22;;;23.80;57.80;;;;;;2460966;53;21016;-73
2022/07/22 07:40:09;;;;;;;6.45;4.72;;;23.80;57.90;;;;;;2312753;54;20986;-73
2022/07/22 07:42:35;;;;;;;5.22;4.03;;;23.90;58.00;;;;;;2320638;54;20977;-73
2022/07/22 07:45:04;;;;;;;5.87;3.80;;;24.00;58.10;;;;;;2320152;54;21413;-73
2022/07/22 07:47:31;;;;;;;5.82;4.12;;;24.10;58.10;;;;;;2339209;53;21834;-73
2022/07/22 07:50:00;;;;;;;5.90;3.80;;;24.20;58.20;;;;;;2557983;53;20982;-74
2022/07/22 07:52:26;;;;;;;6.03;3.60;;;24.30;58.10;;;;;;2312576;54;20933;-73
2022/07/22 07:54:55;;;;;;;4.93;4.00;;;24.40;58.10;;;;;;2289291;54;21072;-73
2022/07/22 07:57:38;;;;;;;4.72;3.80;;;24.50;58.10;;;;;;2325940;54;21876;-74
2022/07/22 08:00:07;;;;;;;5.40;3.67;;;24.60;58.00;;;;;;2304312;54;20931;-74
2022/07/22 08:02:35;;;;;;;7.18;4.28;;;24.70;57.80;;;;;;2298479;53;20944;-75
2022/07/22 08:05:01;;;;;;;6.25;4.22;;;24.80;57.90;;;;;;2316330;54;20974;-73
2022/07/22 08:07:28;;;;;;;6.43;3.95;;;24.90;57.70;;;;;;2329469;54;21385;-74
2022/07/22 08:09:55;;;;;;;5.43;4.07;;;25.00;57.60;;;;;;2328785;54;21408;-73
2022/07/22 08:12:31;;;;;;;5.57;4.05;;;25.00;57.50;;;;;;2339352;53;21814;-73
2022/07/22 08:14:59;;;;;;;7.18;4.07;;;25.10;57.50;;;;;;2328581;54;20984;-75
2022/07/22 08:17:28;;;;;;;5.70;3.55;;;25.20;57.50;;;;;;2338030;54;21009;-75
2022/07/22 08:19:54;;;;;;;6.78;3.42;;;25.20;57.30;;;;;;2364489;53;20967;-74
2022/07/22 08:22:21;;;;;;;4.50;3.28;;;25.40;57.40;;;;;;2337688;54;20985;-72
2022/07/22 08:24:48;;;;;;;5.37;3.92;;;25.40;57.30;;;;;;2342559;54;21488;-74
2022/07/22 08:27:15;;;;;;;6.43;4.28;;;25.50;57.20;;;;;;2570208;53;21000;-73
2022/07/22 08:29:42;;;;;;;5.30;3.83;;;25.60;57.20;;;;;;2334985;53;20984;-73
2022/07/22 08:32:08;;;;;;;5.43;3.85;;;25.70;57.20;;;;;;2344573;53;20991;-75
2022/07/22 08:34:35;;;;;;;7.07;4.28;;;25.70;57.10;;;;;;2334622;54;21006;-74
2022/07/22 08:37:01;;;;;;;6.10;4.37;;;25.80;57.10;;;;;;2345343;54;21152;-74
2022/07/22 08:39:28;;;;;;;5.80;3.97;;;25.90;56.90;;;;;;2330198;54;20940;-73
2022/07/22 08:41:54;;;;;;;5.35;4.30;;;25.90;56.80;;;;;;2573878;53;21007;-73
2022/07/22 08:44:20;;;;;;;5.68;3.65;;;26.00;56.70;;;;;;2336613;54;20982;-73
2022/07/22 08:46:47;;;;;;;5.80;4.32;;;26.10;56.70;;;;;;2400792;52;21045;-74
2022/07/22 08:49:15;;;;;;;5.07;3.75;;;26.10;56.50;;;;;;2351081;54;21453;-74
2022/07/22 08:51:41;;;;;;;4.32;3.15;;;26.20;56.50;;;;;;2348950;53;20980;-72
2022/07/22 08:54:10;;;;;;;4.47;3.30;;;26.30;56.70;;;;;;2331884;54;20924;-75
2022/07/22 08:56:38;;;;;;;5.60;3.65;;;26.30;56.70;;;;;;2588662;52;20960;-73
2022/07/22 08:59:04;;;;;;;6.07;3.70;;;26.40;56.70;;;;;;2347663;53;20928;-75
2022/07/22 09:01:31;;;;;;;4.85;3.65;;;26.50;56.60;;;;;;2342109;54;21446;-73
2022/07/22 09:04:31;;;;;;;5.40;3.60;;;26.50;56.50;;;;;;2338550;53;21102;-73
2022/07/22 09:06:58;;;;;;;4.68;3.35;;;26.60;56.60;;;;;;2578303;52;20963;-72
2022/07/22 09:09:34;;;;;;;5.15;3.53;;;26.70;56.40;;;;;;2337067;54;20977;-73
2022/07/22 09:12:06;;;;;;;5.15;3.83;;;26.80;56.30;;;;;;2344647;54;20988;-74
2022/07/22 09:14:50;;;;;;;5.20;3.60;;;26.90;56.10;;;;;;2351723;53;20964;-75
2022/07/22 09:17:36;;;;;;;5.53;3.83;;;27.00;56.00;;;;;;2574459;53;20988;-73
2022/07/22 09:20:35;;;;;;;5.20;3.62;;;27.00;55.80;;;;;;2333997;54;20945;-74
2022/07/22 09:23:02;;;;;;;4.62;3.33;;;27.10;55.70;;;;;;2573497;53;20937;-73
2022/07/22 09:25:32;;;;;;;4.60;3.47;;;27.10;55.70;;;;;;2369294;53;20958;-73
2022/07/22 09:28:59;;;;;;;5.03;3.60;;;27.20;55.60;;;;;;2320869;54;21023;-74
2022/07/22 09:31:27;;;;;;;4.47;3.10;;;27.30;55.90;;;;;;2577096;53;20937;-73
2022/07/22 09:33:53;;;;;;;4.22;3.00;;;27.40;55.70;;;;;;2321819;54;21418;-73
2022/07/22 09:36:20;;;;;;;11.95;3.50;;;27.50;55.80;;;;;;2315116;55;20995;-74
2022/07/22 09:38:49;;;;;;;6.70;3.92;;;27.50;55.50;;;;;;2302153;53;20978;-74
2022/07/22 09:41:15;;;;;;;6.95;4.12;;;27.60;55.40;;;;;;2310601;54;21128;-72
2022/07/22 09:43:42;;;;;;;4.68;3.83;;;27.60;55.20;;;;;;2362380;53;21062;-74
2022/07/22 09:46:09;;;;;;;4.87;3.72;;;27.80;55.20;;;;;;2319585;54;20943;-74
2022/07/22 09:48:37;;;;;;;4.78;3.55;;;27.80;55.10;;;;;;2332965;54;21067;-74
2022/07/22 09:51:04;;;;;;;5.95;3.90;;;27.90;55.20;;;;;;2306956;55;21077;-73
2022/07/22 09:53:31;;;;;;;6.03;3.92;;;27.90;55.00;;;;;;2326476;54;20980;-74
2022/07/22 09:55:58;;;;;;;5.00;3.95;;;28.00;54.90;;;;;;2302671;55;21415;-72
2022/07/22 09:58:25;;;;;;;5.60;3.95;;;28.10;54.70;;;;;;2313360;54;20957;-73
2022/07/22 10:00:52;;;;;;;5.82;3.87;;;28.20;54.60;;;;;;2309832;54;21029;-72
2022/07/22 10:03:32;;;;;;;5.20;3.67;;;28.30;54.30;;;;;;2324443;54;20924;-73
2022/07/22 10:05:58;;;;;;;4.97;3.80;;;28.30;54.20;;;;;;2322491;55;21010;-73
2022/07/22 10:08:26;;;;;;;4.62;3.08;;;28.40;54.20;;;;;;2310832;54;21070;-72
2022/07/22 10:10:58;;;;;;;5.35;3.55;;;28.50;54.10;;;;;;2320008;54;21012;-73
2022/07/22 10:13:25;;;;;;;5.47;3.97;;;28.50;53.90;;;;;;2321955;54;21010;-75
2022/07/22 10:15:52;;;;;;;5.10;3.60;;;28.60;53.80;;;;;;2335387;55;21015;-74
2022/07/22 10:18:20;;;;;;;4.30;3.37;;;28.70;54.20;;;;;;2316468;54;20948;-73
2022/07/22 10:20:46;;;;;;;5.55;3.72;;;28.70;53.70;;;;;;2328693;54;20962;-73
2022/07/22 10:23:14;;;;;;;5.28;4.05;;;28.80;53.60;;;;;;2316365;54;20988;-73
2022/07/22 10:25:54;;;;;;;6.43;3.85;;;28.90;53.50;;;;;;2332547;55;21493;-73
2022/07/22 10:28:31;;;;;;;4.62;3.47;;;28.90;53.30;;;;;;2316870;54;21027;-73
2022/07/22 10:31:19;;;;;;;5.12;3.75;;;29.00;53.40;;;;;;2318527;55;20992;-73
2022/07/22 10:33:54;;;;;;;5.87;3.87;;;29.10;53.10;;;;;;2339887;54;20945;-72
2022/07/22 10:36:37;;;;;;;6.07;4.25;;;29.10;53.10;;;;;;2572906;53;21000;-72
2022/07/22 10:39:11;;;;;;;5.55;4.30;;;29.20;52.90;;;;;;2322566;54;20955;-74
2022/07/22 10:41:39;;;;;;;5.72;4.10;;;29.30;52.80;;;;;;2323470;54;21711;-73
2022/07/22 10:44:06;;;;;;;5.45;3.97;;;29.30;52.80;;;;;;2327918;54;21516;-73
2022/07/22 10:46:58;;;;;;;5.35;4.43;;;29.40;52.70;;;;;;2312916;54;20943;-73
2022/07/22 10:49:25;;;;;;;5.68;3.92;;;29.40;52.20;;;;;;2333280;54;21015;-73
2022/07/22 10:52:16;;;;;;;6.60;3.95;;;29.50;52.40;;;;;;2293680;54;21070;-73
2022/07/22 10:55:17;;;;;;;4.90;3.70;;;29.60;51.90;;;;;;2333858;54;20941;-75
2022/07/22 10:57:43;;;;;;;5.32;3.65;;;29.60;52.10;;;;;;2311495;54;21774;-73
2022/07/22 11:00:10;;;;;;;5.45;4.07;;;29.70;52.10;;;;;;2452464;53;21103;-73
2022/07/22 11:02:37;;;;;;;5.50;4.22;;;29.70;51.90;;;;;;2305929;55;20982;-75
2022/07/22 11:05:05;;;;;;;5.65;4.10;;;29.80;51.90;;;;;;2562241;53;21035;-73
2022/07/22 11:07:34;;;;;;;5.10;3.75;;;29.80;51.80;;;;;;2297073;55;21010;-74
2022/07/22 11:10:22;;;;;;;5.80;3.55;;;29.90;51.80;;;;;;2304183;54;20943;-73
2022/07/22 11:12:57;;;;;;;5.50;3.92;;;30.00;51.40;;;;;;2333597;53;20941;-73
2022/07/22 11:15:27;;;;;;;5.55;3.60;;;30.00;51.50;;;;;;2320669;54;20987;-74
2022/07/22 11:17:58;;;;;;;4.75;3.62;;;30.10;51.60;;;;;;2319066;53;20962;-73
2022/07/22 11:20:25;;;;;;;5.37;3.95;;;30.10;51.40;;;;;;2394749;53;20994;-73
2022/07/22 11:22:51;;;;;;;5.22;3.62;;;30.10;51.80;;;;;;2314819;54;20932;-73
2022/07/22 11:25:25;;;;;;;5.55;3.90;;;30.30;51.60;;;;;;2552478;53;20943;-73
2022/07/22 11:27:57;;;;;;;4.68;4.00;;;30.40;51.50;;;;;;2318425;54;20935;-74
2022/07/22 11:30:25;;;;;;;5.12;4.25;;;30.40;51.30;;;;;;2294727;54;20977;-74
2022/07/22 11:32:57;;;;;;;5.75;3.90;;;30.40;51.10;;;;;;2393716;54;21034;-73
2022/07/22 11:35:24;;;;;;;6.50;3.87;;;30.50;50.90;;;;;;2371406;52;21031;-73
2022/07/22 11:37:56;;;;;;;4.80;3.28;;;30.60;50.90;;;;;;2306485;54;21744;-75
2022/07/22 11:40:51;;;;;;;6.65;3.70;;;30.60;50.70;;;;;;2316104;55;21023;-73
2022/07/22 11:43:18;;;;;;;5.65;3.58;;;30.70;50.60;;;;;;2401052;53;21501;-73
2022/07/22 11:45:57;;;;;;;5.10;3.50;;;30.80;50.60;;;;;;2467632;53;21044;-74
2022/07/22 11:48:24;;;;;;;4.90;3.97;;;30.80;50.20;;;;;;2317647;53;21120;-74
2022/07/22 11:50:59;;;;;;;4.87;3.35;;;30.90;51.00;;;;;;2297971;55;21077;-73
2022/07/22 11:53:27;;;;;;;4.80;3.55;;;30.90;50.00;;;;;;2493437;53;20957;-73
2022/07/22 11:56:00;;;;;;;5.20;3.67;;;31.00;50.20;;;;;;2288819;54;20976;-73
2022/07/22 11:58:38;;;;;;;5.60;3.28;;;31.00;50.00;;;;;;2348550;54;20991;-73
2022/07/22 12:01:09;;;;;;;4.85;3.47;;;31.10;50.10;;;;;;2321116;54;21535;-73
2022/07/22 12:03:36;;;;;;;4.82;3.70;;;31.10;49.90;;;;;;2323178;54;21092;-73
2022/07/22 12:06:05;;;;;;;5.03;3.60;;;31.20;50.00;;;;;;2308553;54;21516;-75
2022/07/22 12:08:31;;;;;;;4.20;3.28;;;31.20;49.80;;;;;;2321949;55;20951;-72
2022/07/22 12:10:59;;;;;;;4.78;3.87;;;31.30;49.60;;;;;;2317867;54;20972;-74
2022/07/22 12:13:30;;;;;;;6.30;4.07;;;31.30;49.40;;;;;;2399210;53;21498;-73
2022/07/22 12:15:57;;;;;;;4.40;3.12;;;31.40;49.00;;;;;;2312069;54;21011;-73
2022/07/22 12:18:26;;;;;;;4.22;3.35;;;31.40;49.10;;;;;;2315875;54;20971;-75
2022/07/22 12:20:54;;;;;;;5.00;3.45;;;31.50;48.90;;;;;;2320790;55;20995;-74
2022/07/22 12:23:26;;;;;;;4.85;3.62;;;31.50;48.80;;;;;;2391287;53;20953;-74
2022/07/22 12:26:00;;;;;;;3.97;3.12;;;31.50;48.60;;;;;;2330009;55;21550;-73
2022/07/22 12:28:27;;;;;;;5.12;3.97;;;31.60;48.50;;;;;;2405085;54;21043;-74
2022/07/22 12:30:55;;;;;;;5.12;3.55;;;31.60;48.50;;;;;;2321701;54;21498;-73
2022/07/22 12:33:22;;;;;;;4.22;3.25;;;31.70;48.70;;;;;;2403557;53;21469;-73
2022/07/22 12:36:03;;;;;;;4.18;3.00;;;31.70;48.90;;;;;;2320152;54;20975;-73
2022/07/22 12:38:29;;;;;;;4.07;3.45;;;31.70;48.30;;;;;;2511253;53;21004;-73
2022/07/22 12:41:22;;;;;;;4.18;2.90;;;31.80;48.40;;;;;;2304762;55;20993;-74
2022/07/22 12:43:50;;;;;;;3.95;3.20;;;31.90;48.10;;;;;;2454403;53;20951;-73
2022/07/22 12:46:20;;;;;;;4.90;3.10;;;31.90;48.30;;;;;;2317171;54;21024;-73
2022/07/22 12:48:50;;;;;;;3.97;3.05;;;31.90;48.00;;;;;;2319469;54;21613;-73
2022/07/22 12:51:17;;;;;;;4.78;3.60;;;32.00;47.70;;;;;;2291859;55;21092;-73
2022/07/22 12:53:45;;;;;;;7.00;3.60;;;32.00;47.50;;;;;;2408244;53;20927;-73
2022/07/22 12:56:12;;;;;;;4.43;3.12;;;32.10;47.50;;;;;;2337643;53;20960;-73